createdAt,value
2017-06-15T00:00:05.869Z,0
2017-06-15T00:01:06.213Z,0
2017-06-15T00:02:06.250Z,0
2017-06-15T00:03:06.837Z,0
2017-06-15T00:04:06.615Z,0
2017-06-15T00:05:06.636Z,0
2017-06-15T00:06:06.051Z,0
2017-06-15T00:07:06.695Z,0
2017-06-15T00:08:06.093Z,0
2017-06-15T00:09:06.758Z,0
2017-06-15T00:10:06.791Z,0
2017-06-15T00:11:06.520Z,0
2017-06-15T00:12:06.858Z,0
2017-06-15T00:13:07.147Z,0
2017-06-15T00:14:06.898Z,0
2017-06-15T00:15:06.319Z,0
2017-06-15T00:16:06.969Z,0
2017-06-15T00:17:06.681Z,0
2017-06-15T00:18:07.277Z,0
2017-06-15T00:19:06.774Z,0
2017-06-15T00:20:06.772Z,0
2017-06-15T00:21:07.121Z,0
2017-06-15T00:22:07.145Z,0
2017-06-15T00:23:07.114Z,0
2017-06-15T00:24:06.898Z,0
2017-06-15T00:25:06.919Z,0
2017-06-15T00:26:07.269Z,0
2017-06-15T00:27:07.298Z,0
2017-06-15T00:28:07.266Z,0
2017-06-15T00:29:07.040Z,0
2017-06-15T00:30:07.379Z,0
2017-06-15T00:31:07.413Z,0
2017-06-15T00:32:06.817Z,0
2017-06-15T00:33:07.406Z,0
2017-06-15T00:34:07.191Z,0
2017-06-15T00:35:07.221Z,0
2017-06-15T00:36:07.552Z,0
2017-06-15T00:37:07.278Z,0
2017-06-15T00:38:07.259Z,0
2017-06-15T00:39:07.338Z,0
2017-06-15T00:40:07.366Z,0
2017-06-15T00:41:07.396Z,0
2017-06-15T00:42:07.453Z,0
2017-06-15T00:43:07.454Z,0
2017-06-15T00:44:07.170Z,0
2017-06-15T00:45:07.184Z,0
2017-06-15T00:46:07.852Z,0
2017-06-15T00:47:07.886Z,0
2017-06-15T00:48:07.889Z,0
2017-06-15T00:49:07.622Z,0
2017-06-15T00:50:07.972Z,0
2017-06-15T00:51:07.684Z,0
2017-06-15T00:52:08.034Z,0
2017-06-15T00:53:08.005Z,0
2017-06-15T00:54:08.103Z,0
2017-06-15T00:55:07.807Z,0
2017-06-15T00:56:08.156Z,0
2017-06-15T00:57:07.548Z,0
2017-06-15T00:58:08.166Z,0
2017-06-15T00:59:07.931Z,0
2017-06-15T01:00:07.967Z,0
2017-06-15T01:01:08.298Z,0
2017-06-15T01:02:07.385Z,0
2017-06-15T01:03:08.290Z,0
2017-06-15T01:04:08.071Z,0
2017-06-15T01:05:08.103Z,0
2017-06-15T01:06:08.449Z,0
2017-06-15T01:07:07.545Z,0
2017-06-15T01:08:08.491Z,0
2017-06-15T01:09:08.531Z,0
2017-06-15T01:10:08.255Z,0
2017-06-15T01:11:08.276Z,0
2017-06-15T01:12:07.993Z,0
2017-06-15T01:13:08.586Z,0
2017-06-15T01:14:08.376Z,0
2017-06-15T01:15:08.716Z,0
2017-06-15T01:16:08.433Z,0
2017-06-15T01:17:08.462Z,0
2017-06-15T01:18:09.054Z,0
2017-06-15T01:19:08.831Z,0
2017-06-15T01:20:08.538Z,0
2017-06-15T01:21:08.876Z,0
2017-06-15T01:22:07.977Z,0
2017-06-15T01:23:08.637Z,0
2017-06-15T01:24:08.962Z,0
2017-06-15T01:25:08.716Z,0
2017-06-15T01:26:08.720Z,0
2017-06-15T01:27:08.745Z,0
2017-06-15T01:28:08.714Z,0
2017-06-15T01:29:09.117Z,0
2017-06-15T01:30:09.148Z,0
2017-06-15T01:31:08.873Z,0
2017-06-15T01:32:08.593Z,0
2017-06-15T01:33:09.242Z,0
2017-06-15T01:34:08.647Z,0
2017-06-15T01:35:09.301Z,0
2017-06-15T01:36:09.331Z,0
2017-06-15T01:37:08.733Z,0
2017-06-15T01:38:09.633Z,0
2017-06-15T01:39:09.108Z,0
2017-06-15T01:40:09.442Z,0
2017-06-15T01:41:09.472Z,0
2017-06-15T01:42:09.503Z,0
2017-06-15T01:43:09.227Z,0
2017-06-15T01:44:08.935Z,0
2017-06-15T01:45:09.276Z,0
2017-06-15T01:46:09.632Z,0
2017-06-15T01:47:09.028Z,0
2017-06-15T01:48:09.623Z,0
2017-06-15T01:49:09.715Z,0
2017-06-15T01:50:09.736Z,0
2017-06-15T01:51:09.461Z,0
2017-06-15T01:52:09.168Z,0
2017-06-15T01:53:09.206Z,0
2017-06-15T01:54:09.556Z,0
2017-06-15T01:55:09.259Z,0
2017-06-15T01:56:09.290Z,0
2017-06-15T01:57:09.313Z,0
2017-06-15T01:58:09.941Z,0
2017-06-15T01:59:09.684Z,0
2017-06-15T02:00:10.028Z,0
2017-06-15T02:01:10.057Z,0
2017-06-15T02:02:10.094Z,0
2017-06-15T02:03:09.801Z,0
2017-06-15T02:04:10.142Z,0
2017-06-15T02:05:10.176Z,0
2017-06-15T02:06:09.572Z,0
2017-06-15T02:07:09.613Z,0
2017-06-15T02:08:10.198Z,0
2017-06-15T02:09:09.974Z,0
2017-06-15T02:10:10.325Z,0
2017-06-15T02:11:10.039Z,0
2017-06-15T02:12:10.385Z,0
2017-06-15T02:13:10.345Z,0
2017-06-15T02:14:10.473Z,0
2017-06-15T02:15:10.160Z,0
2017-06-15T02:16:10.187Z,0
2017-06-15T02:17:10.213Z,0
2017-06-15T02:18:10.493Z,0
2017-06-15T02:19:10.267Z,0
2017-06-15T02:20:10.300Z,0
2017-06-15T02:21:10.649Z,0
2017-06-15T02:22:10.675Z,0
2017-06-15T02:23:10.709Z,0
2017-06-15T02:24:10.727Z,0
2017-06-15T02:25:10.756Z,0
2017-06-15T02:26:10.793Z,0
2017-06-15T02:27:10.508Z,0
2017-06-15T02:28:11.099Z,0
2017-06-15T02:29:10.559Z,0
2017-06-15T02:30:09.976Z,0
2017-06-15T02:31:10.318Z,0
2017-06-15T02:32:10.973Z,0
2017-06-15T02:33:11.002Z,0
2017-06-15T02:34:10.706Z,0
2017-06-15T02:35:10.431Z,0
2017-06-15T02:36:10.781Z,0
2017-06-15T02:37:11.109Z,0
2017-06-15T02:38:10.834Z,0
2017-06-15T02:39:10.855Z,0
2017-06-15T02:40:10.572Z,0
2017-06-15T02:41:10.601Z,0
2017-06-15T02:42:10.945Z,0
2017-06-15T02:43:10.978Z,0
2017-06-15T02:44:10.690Z,0
2017-06-15T02:45:11.348Z,0
2017-06-15T02:46:10.436Z,0
2017-06-15T02:47:10.785Z,0
2017-06-15T02:48:11.684Z,0
2017-06-15T02:49:10.834Z,0
2017-06-15T02:50:11.497Z,0
2017-06-15T02:51:11.516Z,0
2017-06-15T02:52:11.244Z,0
2017-06-15T02:53:11.268Z,0
2017-06-15T02:54:11.863Z,0
2017-06-15T02:55:11.323Z,0
2017-06-15T02:56:11.365Z,0
2017-06-15T02:57:11.397Z,0
2017-06-15T02:58:11.729Z,0
2017-06-15T02:59:12.007Z,0
2017-06-15T03:00:11.151Z,0
2017-06-15T03:01:11.813Z,0
2017-06-15T03:02:11.222Z,0
2017-06-15T03:03:11.878Z,0
2017-06-15T03:04:11.895Z,0
2017-06-15T03:05:11.299Z,0
2017-06-15T03:06:11.644Z,0
2017-06-15T03:07:11.986Z,0
2017-06-15T03:08:11.710Z,0
2017-06-15T03:09:11.982Z,0
2017-06-15T03:10:11.768Z,0
2017-06-15T03:11:12.100Z,0
2017-06-15T03:12:12.161Z,0
2017-06-15T03:13:11.839Z,0
2017-06-15T03:14:12.187Z,0
2017-06-15T03:15:12.218Z,0
2017-06-15T03:16:11.937Z,0
2017-06-15T03:17:11.645Z,0
2017-06-15T03:18:11.983Z,0
2017-06-15T03:19:12.579Z,0
2017-06-15T03:20:12.363Z,0
2017-06-15T03:21:11.774Z,0
2017-06-15T03:22:11.798Z,0
2017-06-15T03:23:12.458Z,0
2017-06-15T03:24:12.159Z,0
2017-06-15T03:25:12.211Z,0
2017-06-15T03:26:11.912Z,0
2017-06-15T03:27:12.564Z,0
2017-06-15T03:28:11.963Z,0
2017-06-15T03:29:12.911Z,0
2017-06-15T03:30:12.028Z,0
2017-06-15T03:31:12.684Z,0
2017-06-15T03:32:12.082Z,0
2017-06-15T03:33:12.434Z,0
2017-06-15T03:34:13.016Z,0
2017-06-15T03:35:12.800Z,0
2017-06-15T03:36:12.516Z,0
2017-06-15T03:37:12.854Z,0
2017-06-15T03:38:12.265Z,0
2017-06-15T03:39:12.599Z,0
2017-06-15T03:40:12.619Z,0
2017-06-15T03:41:12.669Z,0
2017-06-15T03:42:12.689Z,0
2017-06-15T03:43:12.411Z,0
2017-06-15T03:44:13.067Z,0
2017-06-15T03:45:12.780Z,0
2017-06-15T03:46:13.110Z,0
2017-06-15T03:47:12.522Z,0
2017-06-15T03:48:13.208Z,0
2017-06-15T03:49:12.833Z,0
2017-06-15T03:50:12.916Z,0
2017-06-15T03:51:12.960Z,0
2017-06-15T03:52:13.280Z,0
2017-06-15T03:53:13.323Z,0
2017-06-15T03:54:12.722Z,0
2017-06-15T03:55:13.377Z,0
2017-06-15T03:56:13.413Z,0
2017-06-15T03:57:13.446Z,0
2017-06-15T03:58:13.478Z,0
2017-06-15T03:59:13.443Z,0
2017-06-15T04:00:13.212Z,0
2017-06-15T04:01:13.241Z,0
2017-06-15T04:02:13.277Z,0
2017-06-15T04:03:13.615Z,0
2017-06-15T04:04:13.623Z,0
2017-06-15T04:05:13.355Z,0
2017-06-15T04:06:13.699Z,0
2017-06-15T04:07:13.412Z,0
2017-06-15T04:08:13.139Z,0
2017-06-15T04:09:13.414Z,0
2017-06-15T04:10:13.191Z,0
2017-06-15T04:11:13.853Z,0
2017-06-15T04:12:13.874Z,0
2017-06-15T04:13:13.895Z,0
2017-06-15T04:14:13.919Z,0
2017-06-15T04:15:13.021Z,0
2017-06-15T04:16:13.360Z,0
2017-06-15T04:17:13.709Z,0
2017-06-15T04:18:14.041Z,0
2017-06-15T04:19:14.079Z,0
2017-06-15T04:20:14.109Z,0
2017-06-15T04:21:14.141Z,0
2017-06-15T04:22:13.850Z,0
2017-06-15T04:23:14.195Z,0
2017-06-15T04:24:14.220Z,0
2017-06-15T04:25:13.316Z,0
2017-06-15T04:26:14.282Z,0
2017-06-15T04:27:14.314Z,0
2017-06-15T04:28:14.018Z,0
2017-06-15T04:29:14.055Z,5
2017-06-15T04:30:14.093Z,5
2017-06-15T04:31:14.431Z,5
2017-06-15T04:32:14.458Z,5
2017-06-15T04:33:14.159Z,5
2017-06-15T04:34:14.455Z,5
2017-06-15T04:35:14.543Z,5
2017-06-15T04:36:14.265Z,5
2017-06-15T04:37:14.287Z,5
2017-06-15T04:38:14.622Z,5
2017-06-15T04:39:14.287Z,5
2017-06-15T04:40:14.060Z,5
2017-06-15T04:41:14.102Z,5
2017-06-15T04:42:14.426Z,5
2017-06-15T04:43:14.463Z,5
2017-06-15T04:44:14.423Z,5
2017-06-15T04:45:14.511Z,5
2017-06-15T04:46:14.859Z,5
2017-06-15T04:47:14.581Z,5
2017-06-15T04:48:14.595Z,5
2017-06-15T04:49:14.944Z,5
2017-06-15T04:50:14.035Z,5
2017-06-15T04:51:14.684Z,5
2017-06-15T04:52:14.413Z,5
2017-06-15T04:53:15.059Z,5
2017-06-15T04:54:15.339Z,5
2017-06-15T04:55:15.115Z,5
2017-06-15T04:56:14.830Z,5
2017-06-15T04:57:15.178Z,5
2017-06-15T04:58:15.206Z,5
2017-06-15T04:59:15.486Z,5
2017-06-15T05:00:14.641Z,5
2017-06-15T05:01:15.285Z,5
2017-06-15T05:02:15.013Z,5
2017-06-15T05:03:15.350Z,5
2017-06-15T05:04:15.633Z,5
2017-06-15T05:05:14.788Z,5
2017-06-15T05:06:15.113Z,5
2017-06-15T05:07:15.152Z,5
2017-06-15T05:08:15.191Z,5
2017-06-15T05:09:15.463Z,5
2017-06-15T05:10:15.561Z,5
2017-06-15T05:11:15.586Z,5
2017-06-15T05:12:15.606Z,5
2017-06-15T05:13:15.637Z,5
2017-06-15T05:14:15.919Z,5
2017-06-15T05:15:15.417Z,5
2017-06-15T05:16:15.729Z,5
2017-06-15T05:17:15.429Z,5
2017-06-15T05:18:15.783Z,5
2017-06-15T05:19:15.757Z,5
2017-06-15T05:20:15.541Z,5
2017-06-15T05:21:15.868Z,5
2017-06-15T05:22:15.285Z,5
2017-06-15T05:23:15.614Z,5
2017-06-15T05:24:15.271Z,5
2017-06-15T05:25:15.668Z,5
2017-06-15T05:26:15.710Z,5
2017-06-15T05:27:16.044Z,5
2017-06-15T05:28:15.448Z,5
2017-06-15T05:29:16.047Z,5
2017-06-15T05:30:16.132Z,10
2017-06-15T05:31:15.856Z,10
2017-06-15T05:32:15.874Z,10
2017-06-15T05:33:15.910Z,10
2017-06-15T05:34:16.181Z,10
2017-06-15T05:35:15.661Z,10
2017-06-15T05:36:15.993Z,10
2017-06-15T05:37:16.337Z,10
2017-06-15T05:38:16.360Z,10
2017-06-15T05:39:16.399Z,10
2017-06-15T05:40:16.107Z,10
2017-06-15T05:41:16.452Z,10
2017-06-15T05:42:16.168Z,10
2017-06-15T05:43:16.510Z,10
2017-06-15T05:44:16.221Z,10
2017-06-15T05:45:16.576Z,10
2017-06-15T05:46:16.606Z,10
2017-06-15T05:47:16.622Z,10
2017-06-15T05:48:16.339Z,10
2017-06-15T05:49:16.689Z,10
2017-06-15T05:50:16.443Z,10
2017-06-15T05:51:16.429Z,10
2017-06-15T05:52:16.778Z,10
2017-06-15T05:53:16.491Z,10
2017-06-15T05:54:16.836Z,10
2017-06-15T05:55:16.851Z,10
2017-06-15T05:56:16.261Z,10
2017-06-15T05:57:16.938Z,10
2017-06-15T05:58:16.630Z,10
2017-06-15T05:59:17.233Z,10
2017-06-15T06:00:16.696Z,10
2017-06-15T06:01:16.719Z,10
2017-06-15T06:02:16.736Z,10
2017-06-15T06:03:17.089Z,10
2017-06-15T06:04:16.171Z,10
2017-06-15T06:05:17.396Z,10
2017-06-15T06:06:16.869Z,10
2017-06-15T06:07:16.897Z,10
2017-06-15T06:08:16.918Z,10
2017-06-15T06:09:16.955Z,10
2017-06-15T06:10:17.550Z,10
2017-06-15T06:11:17.005Z,10
2017-06-15T06:12:17.353Z,10
2017-06-15T06:13:17.056Z,10
2017-06-15T06:14:17.404Z,10
2017-06-15T06:15:17.368Z,10
2017-06-15T06:16:17.456Z,10
2017-06-15T06:17:17.504Z,10
2017-06-15T06:18:17.530Z,10
2017-06-15T06:19:17.556Z,10
2017-06-15T06:20:17.589Z,10
2017-06-15T06:21:17.305Z,10
2017-06-15T06:22:17.025Z,10
2017-06-15T06:23:17.353Z,10
2017-06-15T06:24:17.386Z,10
2017-06-15T06:25:17.660Z,10
2017-06-15T06:26:17.752Z,10
2017-06-15T06:27:17.478Z,10
2017-06-15T06:28:17.494Z,10
2017-06-15T06:29:17.869Z,10
2017-06-15T06:30:17.825Z,10
2017-06-15T06:31:17.597Z,10
2017-06-15T06:32:17.934Z,10
2017-06-15T06:33:17.966Z,10
2017-06-15T06:34:17.992Z,10
2017-06-15T06:35:18.015Z,10
2017-06-15T06:36:18.041Z,10
2017-06-15T06:37:17.450Z,10
2017-06-15T06:38:18.111Z,10
2017-06-15T06:39:18.143Z,10
2017-06-15T06:40:18.112Z,10
2017-06-15T06:41:17.886Z,10
2017-06-15T06:42:17.921Z,10
2017-06-15T06:43:18.247Z,10
2017-06-15T06:44:17.967Z,10
2017-06-15T06:45:17.945Z,10
2017-06-15T06:46:18.028Z,10
2017-06-15T06:47:18.066Z,10
2017-06-15T06:48:18.397Z,10
2017-06-15T06:49:18.107Z,10
2017-06-15T06:50:17.784Z,10
2017-06-15T06:51:18.182Z,10
2017-06-15T06:52:18.509Z,10
2017-06-15T06:53:18.230Z,10
2017-06-15T06:54:18.571Z,10
2017-06-15T06:55:18.855Z,10
2017-06-15T06:56:18.628Z,10
2017-06-15T06:57:18.657Z,10
2017-06-15T06:58:18.054Z,10
2017-06-15T06:59:18.714Z,10
2017-06-15T07:00:18.680Z,10
2017-06-15T07:01:18.157Z,10
2017-06-15T07:02:18.490Z,10
2017-06-15T07:03:18.534Z,10
2017-06-15T07:04:18.243Z,10
2017-06-15T07:05:18.529Z,10
2017-06-15T07:06:18.629Z,10
2017-06-15T07:07:18.650Z,10
2017-06-15T07:08:18.679Z,10
2017-06-15T07:09:18.079Z,10
2017-06-15T07:10:18.976Z,10
2017-06-15T07:11:18.766Z,10
2017-06-15T07:12:19.094Z,10
2017-06-15T07:13:18.827Z,10
2017-06-15T07:14:18.858Z,10
2017-06-15T07:15:19.135Z,10
2017-06-15T07:16:19.226Z,10
2017-06-15T07:17:18.617Z,10
2017-06-15T07:18:19.283Z,10
2017-06-15T07:19:18.996Z,15
2017-06-15T07:20:19.024Z,15
2017-06-15T07:21:18.730Z,15
2017-06-15T07:22:19.079Z,15
2017-06-15T07:23:19.111Z,15
2017-06-15T07:24:19.448Z,15
2017-06-15T07:25:19.736Z,15
2017-06-15T07:26:18.878Z,15
2017-06-15T07:27:18.922Z,15
2017-06-15T07:28:19.263Z,15
2017-06-15T07:29:18.992Z,15
2017-06-15T07:30:19.561Z,15
2017-06-15T07:31:19.664Z,15
2017-06-15T07:32:19.059Z,15
2017-06-15T07:33:19.407Z,15
2017-06-15T07:34:19.439Z,15
2017-06-15T07:35:19.767Z,15
2017-06-15T07:36:19.510Z,15
2017-06-15T07:37:19.212Z,15
2017-06-15T07:38:19.860Z,15
2017-06-15T07:39:19.579Z,15
2017-06-15T07:40:19.861Z,15
2017-06-15T07:41:19.641Z,15
2017-06-15T07:42:19.658Z,15
2017-06-15T07:43:19.394Z,15
2017-06-15T07:44:20.048Z,15
2017-06-15T07:45:20.005Z,15
2017-06-15T07:46:20.106Z,15
2017-06-15T07:47:20.135Z,15
2017-06-15T07:48:20.159Z,15
2017-06-15T07:49:19.867Z,15
2017-06-15T07:50:19.579Z,15
2017-06-15T07:51:20.245Z,15
2017-06-15T07:52:20.279Z,15
2017-06-15T07:53:19.991Z,15
2017-06-15T07:54:19.707Z,15
2017-06-15T07:55:20.049Z,15
2017-06-15T07:56:20.398Z,15
2017-06-15T07:57:20.111Z,15
2017-06-15T07:58:20.452Z,15
2017-06-15T07:59:20.489Z,15
2017-06-15T08:00:20.518Z,15
2017-06-15T08:01:20.232Z,15
2017-06-15T08:02:20.566Z,15
2017-06-15T08:03:20.595Z,15
2017-06-15T08:04:20.320Z,15
2017-06-15T08:05:20.033Z,15
2017-06-15T08:06:20.066Z,15
2017-06-15T08:07:20.720Z,15
2017-06-15T08:08:20.431Z,15
2017-06-15T08:09:20.452Z,15
2017-06-15T08:10:20.744Z,15
2017-06-15T08:11:20.212Z,15
2017-06-15T08:12:20.857Z,15
2017-06-15T08:13:20.274Z,15
2017-06-15T08:14:20.611Z,15
2017-06-15T08:15:20.885Z,15
2017-06-15T08:16:20.352Z,15
2017-06-15T08:17:20.079Z,15
2017-06-15T08:18:21.027Z,15
2017-06-15T08:19:20.447Z,15
2017-06-15T08:20:21.100Z,15
2017-06-15T08:21:21.127Z,15
2017-06-15T08:22:20.834Z,15
2017-06-15T08:23:21.194Z,15
2017-06-15T08:24:21.220Z,15
2017-06-15T08:25:21.252Z,15
2017-06-15T08:26:20.965Z,15
2017-06-15T08:27:21.311Z,15
2017-06-15T08:28:21.335Z,15
2017-06-15T08:29:21.059Z,15
2017-06-15T08:30:20.462Z,15
2017-06-15T08:31:21.426Z,15
2017-06-15T08:32:21.487Z,15
2017-06-15T08:33:21.486Z,15
2017-06-15T08:34:21.205Z,15
2017-06-15T08:35:21.228Z,20
2017-06-15T08:36:21.582Z,20
2017-06-15T08:37:21.609Z,20
2017-06-15T08:38:21.323Z,20
2017-06-15T08:39:21.043Z,20
2017-06-15T08:40:21.685Z,20
2017-06-15T08:41:21.662Z,20
2017-06-15T08:42:21.442Z,20
2017-06-15T08:43:21.463Z,20
2017-06-15T08:44:20.563Z,20
2017-06-15T08:45:21.528Z,20
2017-06-15T08:46:21.813Z,20
2017-06-15T08:47:21.591Z,20
2017-06-15T08:48:21.611Z,20
2017-06-15T08:49:21.339Z,20
2017-06-15T08:50:21.671Z,20
2017-06-15T08:51:21.953Z,20
2017-06-15T08:52:21.731Z,20
2017-06-15T08:53:22.079Z,20
2017-06-15T08:54:22.104Z,20
2017-06-15T08:55:21.824Z,20
2017-06-15T08:56:22.100Z,20
2017-06-15T08:57:22.187Z,20
2017-06-15T08:58:22.219Z,20
2017-06-15T08:59:22.251Z,20
2017-06-15T09:00:22.295Z,20
2017-06-15T09:01:22.249Z,20
2017-06-15T09:02:22.342Z,20
2017-06-15T09:03:22.375Z,20
2017-06-15T09:04:22.411Z,20
2017-06-15T09:05:22.120Z,20
2017-06-15T09:06:22.397Z,20
2017-06-15T09:07:22.175Z,20
2017-06-15T09:08:22.199Z,20
2017-06-15T09:09:22.563Z,20
2017-06-15T09:10:22.613Z,20
2017-06-15T09:11:22.296Z,20
2017-06-15T09:12:22.330Z,20
2017-06-15T09:13:22.042Z,25
2017-06-15T09:14:22.382Z,25
2017-06-15T09:15:22.723Z,25
2017-06-15T09:16:23.010Z,25
2017-06-15T09:17:22.481Z,25
2017-06-15T09:18:22.502Z,25
2017-06-15T09:19:22.539Z,25
2017-06-15T09:20:22.565Z,25
2017-06-15T09:21:22.606Z,25
2017-06-15T09:22:22.630Z,25
2017-06-15T09:23:22.958Z,25
2017-06-15T09:24:22.995Z,25
2017-06-15T09:25:23.011Z,25
2017-06-15T09:26:22.993Z,25
2017-06-15T09:27:22.778Z,25
2017-06-15T09:28:22.499Z,25
2017-06-15T09:29:22.827Z,25
2017-06-15T09:30:23.176Z,25
2017-06-15T09:31:23.130Z,25
2017-06-15T09:32:23.234Z,25
2017-06-15T09:33:22.952Z,25
2017-06-15T09:34:22.659Z,25
2017-06-15T09:35:22.696Z,25
2017-06-15T09:36:23.046Z,25
2017-06-15T09:37:23.067Z,25
2017-06-15T09:38:23.411Z,25
2017-06-15T09:39:23.129Z,25
2017-06-15T09:40:22.852Z,25
2017-06-15T09:41:23.193Z,25
2017-06-15T09:42:23.216Z,25
2017-06-15T09:43:23.260Z,25
2017-06-15T09:44:22.963Z,25
2017-06-15T09:45:23.309Z,25
2017-06-15T09:46:23.908Z,25
2017-06-15T09:47:23.688Z,25
2017-06-15T09:48:23.712Z,25
2017-06-15T09:49:23.131Z,25
2017-06-15T09:50:23.142Z,25
2017-06-15T09:51:23.489Z,25
2017-06-15T09:52:23.830Z,25
2017-06-15T09:53:23.859Z,25
2017-06-15T09:54:23.900Z,25
2017-06-15T09:55:23.916Z,25
2017-06-15T09:56:23.874Z,25
2017-06-15T09:57:23.653Z,25
2017-06-15T09:58:24.003Z,30
2017-06-15T09:59:24.043Z,30
2017-06-15T10:00:23.439Z,30
2017-06-15T10:01:23.472Z,30
2017-06-15T10:02:24.121Z,30
2017-06-15T10:03:23.530Z,30
2017-06-15T10:04:23.595Z,30
2017-06-15T10:05:23.899Z,30
2017-06-15T10:06:24.231Z,30
2017-06-15T10:07:23.969Z,30
2017-06-15T10:08:23.995Z,30
2017-06-15T10:09:24.027Z,30
2017-06-15T10:10:24.359Z,30
2017-06-15T10:11:24.086Z,30
2017-06-15T10:12:24.134Z,30
2017-06-15T10:13:24.147Z,30
2017-06-15T10:14:24.486Z,30
2017-06-15T10:15:24.192Z,30
2017-06-15T10:16:24.496Z,30
2017-06-15T10:17:24.267Z,30
2017-06-15T10:18:23.986Z,30
2017-06-15T10:19:23.692Z,30
2017-06-15T10:20:24.668Z,30
2017-06-15T10:21:24.950Z,30
2017-06-15T10:22:24.729Z,30
2017-06-15T10:23:24.133Z,30
2017-06-15T10:24:24.151Z,30
2017-06-15T10:25:24.808Z,30
2017-06-15T10:26:24.472Z,30
2017-06-15T10:27:24.566Z,35
2017-06-15T10:28:24.591Z,35
2017-06-15T10:29:24.303Z,35
2017-06-15T10:30:24.955Z,35
2017-06-15T10:31:24.693Z,35
2017-06-15T10:32:24.403Z,35
2017-06-15T10:33:25.051Z,35
2017-06-15T10:34:25.079Z,35
2017-06-15T10:35:24.488Z,35
2017-06-15T10:36:24.834Z,35
2017-06-15T10:37:25.169Z,35
2017-06-15T10:38:25.200Z,35
2017-06-15T10:39:25.240Z,35
2017-06-15T10:40:25.269Z,35
2017-06-15T10:41:25.234Z,35
2017-06-15T10:42:25.009Z,35
2017-06-15T10:43:25.356Z,35
2017-06-15T10:44:25.384Z,35
2017-06-15T10:45:25.413Z,35
2017-06-15T10:46:25.698Z,35
2017-06-15T10:47:25.479Z,35
2017-06-15T10:48:24.886Z,35
2017-06-15T10:49:25.536Z,35
2017-06-15T10:50:25.252Z,35
2017-06-15T10:51:25.280Z,35
2017-06-15T10:52:25.625Z,35
2017-06-15T10:53:25.351Z,35
2017-06-15T10:54:25.695Z,35
2017-06-15T10:55:25.088Z,40
2017-06-15T10:56:25.369Z,40
2017-06-15T10:57:25.466Z,40
2017-06-15T10:58:25.490Z,40
2017-06-15T10:59:25.839Z,40
2017-06-15T11:00:25.857Z,40
2017-06-15T11:01:25.942Z,40
2017-06-15T11:02:25.929Z,40
2017-06-15T11:03:25.959Z,40
2017-06-15T11:04:25.667Z,40
2017-06-15T11:05:25.396Z,40
2017-06-15T11:06:26.305Z,40
2017-06-15T11:07:25.462Z,40
2017-06-15T11:08:25.498Z,45
2017-06-15T11:09:26.141Z,45
2017-06-15T11:10:25.871Z,45
2017-06-15T11:11:26.454Z,45
2017-06-15T11:12:26.234Z,45
2017-06-15T11:13:26.263Z,45
2017-06-15T11:14:25.977Z,50
2017-06-15T11:15:26.330Z,50
2017-06-15T11:16:25.664Z,55
2017-06-15T11:17:26.426Z,60
2017-06-15T11:18:26.419Z,65
2017-06-15T11:19:26.448Z,70
2017-06-15T11:20:26.477Z,75
2017-06-15T11:21:26.205Z,80
2017-06-15T11:22:26.538Z,100
2017-06-15T11:23:26.275Z,105
2017-06-15T11:24:26.279Z,105
2017-06-15T11:25:26.621Z,115
2017-06-15T11:26:26.658Z,130
2017-06-15T11:27:26.365Z,110
2017-06-15T11:28:26.715Z,80
2017-06-15T11:29:26.760Z,100
2017-06-15T11:30:26.776Z,305
2017-06-15T11:31:26.174Z,460
2017-06-15T11:32:26.206Z,410
2017-06-15T11:33:26.871Z,375
2017-06-15T11:34:26.903Z,370
2017-06-15T11:35:26.924Z,365
2017-06-15T11:36:26.649Z,390
2017-06-15T11:37:26.985Z,415
2017-06-15T11:38:26.711Z,430
2017-06-15T11:39:26.424Z,450
2017-06-15T11:40:27.081Z,475
2017-06-15T11:41:26.789Z,480
2017-06-15T11:42:26.838Z,500
2017-06-15T11:43:26.551Z,505
2017-06-15T11:44:26.888Z,520
2017-06-15T11:45:26.620Z,565
2017-06-15T11:46:26.969Z,675
2017-06-15T11:47:27.550Z,760
2017-06-15T11:48:27.328Z,705
2017-06-15T11:49:27.381Z,670
2017-06-15T11:50:27.401Z,740
2017-06-15T11:51:27.119Z,870
2017-06-15T11:52:27.401Z,1040
2017-06-15T11:53:27.503Z,1110
2017-06-15T11:54:27.533Z,1115
2017-06-15T11:55:27.256Z,1140
2017-06-15T11:56:26.975Z,995
2017-06-15T11:57:27.622Z,810
2017-06-15T11:58:27.671Z,855
2017-06-15T11:59:27.379Z,975
2017-06-15T12:00:27.424Z,905
2017-06-15T12:01:27.453Z,690
2017-06-15T12:02:27.783Z,700
2017-06-15T12:03:27.827Z,595
2017-06-15T12:04:27.236Z,405
2017-06-15T12:05:27.929Z,215
2017-06-15T12:06:27.934Z,105
2017-06-15T12:07:27.963Z,175
2017-06-15T12:08:27.991Z,135
2017-06-15T12:09:28.043Z,65
2017-06-15T12:10:27.757Z,95
2017-06-15T12:11:28.101Z,750
2017-06-15T12:12:28.379Z,685
2017-06-15T12:13:27.547Z,695
2017-06-15T12:14:27.880Z,855
2017-06-15T12:15:27.618Z,820
2017-06-15T12:16:27.637Z,695
2017-06-15T12:17:27.615Z,530
2017-06-15T12:18:27.700Z,450
2017-06-15T12:19:27.749Z,560
2017-06-15T12:20:28.089Z,395
2017-06-15T12:21:28.121Z,740
2017-06-15T12:22:28.130Z,770
2017-06-15T12:23:28.198Z,915
2017-06-15T12:24:28.540Z,1015
2017-06-15T12:25:28.571Z,350
2017-06-15T12:26:27.985Z,70
2017-06-15T12:27:28.330Z,350
2017-06-15T12:28:28.359Z,895
2017-06-15T12:29:28.391Z,790
2017-06-15T12:30:28.742Z,765
2017-06-15T12:31:28.463Z,805
2017-06-15T12:32:29.062Z,840
2017-06-15T12:33:28.544Z,950
2017-06-15T12:34:28.572Z,1025
2017-06-15T12:35:28.607Z,995
2017-06-15T12:36:28.328Z,830
2017-06-15T12:37:28.949Z,930
2017-06-15T12:38:29.025Z,1140
2017-06-15T12:39:28.736Z,970
2017-06-15T12:40:28.777Z,110
2017-06-15T12:41:28.842Z,905
2017-06-15T12:42:28.783Z,950
2017-06-15T12:43:29.187Z,1015
2017-06-15T12:44:29.244Z,940
2017-06-15T12:45:29.261Z,890
2017-06-15T12:46:28.981Z,865
2017-06-15T12:47:29.322Z,900
2017-06-15T12:48:29.052Z,930
2017-06-15T12:49:29.092Z,870
2017-06-15T12:50:29.432Z,155
2017-06-15T12:51:28.854Z,695
2017-06-15T12:52:29.503Z,1010
2017-06-15T12:53:29.232Z,435
2017-06-15T12:54:29.576Z,385
2017-06-15T12:55:29.614Z,480
2017-06-15T12:56:29.332Z,725
2017-06-15T12:57:29.611Z,290
2017-06-15T12:58:29.092Z,75
2017-06-15T12:59:29.752Z,90
2017-06-15T13:00:29.474Z,70
2017-06-15T13:01:29.515Z,885
2017-06-15T13:02:30.102Z,270
2017-06-15T13:03:29.584Z,995
2017-06-15T13:04:29.929Z,660
2017-06-15T13:05:29.956Z,380
2017-06-15T13:06:29.990Z,285
2017-06-15T13:07:29.659Z,120
2017-06-15T13:08:30.056Z,110
2017-06-15T13:09:30.150Z,160
2017-06-15T13:10:30.138Z,235
2017-06-15T13:11:30.201Z,220
2017-06-15T13:12:30.450Z,210
2017-06-15T13:13:30.240Z,200
2017-06-15T13:14:29.991Z,190
2017-06-15T13:15:29.993Z,105
2017-06-15T13:16:30.026Z,210
2017-06-15T13:17:30.318Z,190
2017-06-15T13:18:30.412Z,175
2017-06-15T13:19:30.434Z,175
2017-06-15T13:20:30.472Z,175
2017-06-15T13:21:30.522Z,165
2017-06-15T13:22:30.542Z,165
2017-06-15T13:23:29.949Z,195
2017-06-15T13:24:29.989Z,190
2017-06-15T13:25:30.653Z,190
2017-06-15T13:26:30.069Z,185
2017-06-15T13:27:30.671Z,165
2017-06-15T13:28:30.127Z,160
2017-06-15T13:29:30.782Z,145
2017-06-15T13:30:30.846Z,140
2017-06-15T13:31:30.866Z,140
2017-06-15T13:32:30.842Z,125
2017-06-15T13:33:30.944Z,150
2017-06-15T13:34:30.656Z,145
2017-06-15T13:35:30.681Z,140
2017-06-15T13:36:30.451Z,135
2017-06-15T13:37:31.315Z,140
2017-06-15T13:38:30.793Z,145
2017-06-15T13:39:30.821Z,145
2017-06-15T13:40:31.185Z,150
2017-06-15T13:41:31.202Z,155
2017-06-15T13:42:31.251Z,135
2017-06-15T13:43:30.964Z,155
2017-06-15T13:44:31.313Z,135
2017-06-15T13:45:31.034Z,130
2017-06-15T13:46:31.366Z,110
2017-06-15T13:47:31.352Z,145
2017-06-15T13:48:31.445Z,95
2017-06-15T13:49:31.472Z,60
2017-06-15T13:50:30.894Z,65
2017-06-15T13:51:31.243Z,50
2017-06-15T13:52:31.519Z,45
2017-06-15T13:53:31.316Z,120
2017-06-15T13:54:31.662Z,160
2017-06-15T13:55:31.678Z,130
2017-06-15T13:56:31.454Z,120
2017-06-15T13:57:31.703Z,125
2017-06-15T13:58:31.800Z,85
2017-06-15T13:59:31.828Z,85
2017-06-15T14:00:31.861Z,75
2017-06-15T14:01:31.579Z,110
2017-06-15T14:02:31.867Z,105
2017-06-15T14:03:31.687Z,100
2017-06-15T14:04:31.985Z,95
2017-06-15T14:05:31.717Z,90
2017-06-15T14:06:32.072Z,65
2017-06-15T14:07:32.040Z,45
2017-06-15T14:08:31.828Z,30
2017-06-15T14:09:32.181Z,20
2017-06-15T14:10:32.210Z,20
2017-06-15T14:11:32.235Z,25
2017-06-15T14:12:31.644Z,35
2017-06-15T14:13:31.988Z,50
2017-06-15T14:14:32.336Z,70
2017-06-15T14:15:32.365Z,70
2017-06-15T14:16:31.778Z,60
2017-06-15T14:17:32.380Z,55
2017-06-15T14:18:32.169Z,60
2017-06-15T14:19:32.190Z,75
2017-06-15T14:20:32.214Z,75
2017-06-15T14:21:31.942Z,75